createdAt,value
2017-09-16T00:01:07.016Z,7.37
2017-09-16T00:03:35.876Z,10.10
2017-09-16T00:06:04.752Z,6.50
2017-09-16T00:08:33.614Z,7.30
2017-09-16T00:11:02.496Z,7.43
2017-09-16T00:13:31.356Z,6.83
2017-09-16T00:16:00.237Z,7.10
2017-09-16T00:18:29.092Z,6.70
2017-09-16T00:20:57.968Z,10.43
2017-09-16T00:23:26.828Z,8.97
2017-09-16T00:25:55.701Z,6.03
2017-09-16T00:28:24.556Z,6.13
2017-09-16T00:30:53.428Z,5.73
2017-09-16T00:33:22.280Z,6.67
2017-09-16T00:35:51.148Z,6.50
2017-09-16T00:38:20.000Z,7.40
2017-09-16T00:40:48.873Z,6.83
2017-09-16T00:43:17.729Z,6.73
2017-09-16T00:45:46.607Z,7.30
2017-09-16T00:48:15.471Z,5.63
2017-09-16T00:50:44.341Z,7.30
2017-09-16T00:53:13.202Z,7.10
2017-09-16T00:55:42.078Z,6.77
2017-09-16T00:58:10.940Z,7.67
2017-09-16T01:00:39.838Z,7.00
2017-09-16T01:03:08.693Z,6.83
2017-09-16T01:05:37.549Z,8.17
2017-09-16T01:08:06.420Z,7.97
2017-09-16T01:10:35.272Z,8.00
2017-09-16T01:13:04.267Z,6.70
2017-09-16T01:15:33.124Z,6.80
2017-09-16T01:18:01.997Z,6.50
2017-09-16T01:20:30.859Z,6.63
2017-09-16T01:22:59.733Z,6.67
2017-09-16T01:25:28.587Z,6.43
2017-09-16T01:27:57.461Z,5.77
2017-09-16T01:30:26.321Z,6.80
2017-09-16T01:32:55.195Z,6.70
2017-09-16T01:35:24.053Z,9.67
2017-09-16T01:37:52.919Z,7.00
2017-09-16T01:40:21.767Z,7.30
2017-09-16T01:42:50.641Z,6.40
2017-09-16T01:45:19.495Z,7.67
2017-09-16T01:47:48.368Z,6.43
2017-09-16T01:50:17.230Z,6.73
2017-09-16T01:52:46.101Z,7.47
2017-09-16T01:55:14.957Z,7.03
2017-09-16T01:57:43.837Z,7.40
2017-09-16T02:00:12.697Z,6.83
2017-09-16T02:02:41.568Z,7.57
2017-09-16T02:05:10.423Z,7.90
2017-09-16T02:07:39.296Z,7.60
2017-09-16T02:10:08.152Z,6.27
2017-09-16T02:12:37.028Z,6.60
2017-09-16T02:15:05.884Z,6.10
2017-09-16T02:17:34.756Z,6.20
2017-09-16T02:20:03.613Z,7.60
2017-09-16T02:22:32.483Z,6.77
2017-09-16T02:25:01.336Z,7.00
2017-09-16T02:27:30.223Z,8.43
2017-09-16T02:29:59.085Z,7.67
2017-09-16T02:32:27.940Z,8.17
2017-09-16T02:34:56.816Z,8.40
2017-09-16T02:37:25.676Z,9.10
2017-09-16T02:39:54.552Z,7.50
2017-09-16T02:42:23.409Z,7.07
2017-09-16T02:44:52.292Z,7.70
2017-09-16T02:47:21.153Z,7.30
2017-09-16T02:49:50.021Z,7.80
2017-09-16T02:52:18.885Z,7.03
2017-09-16T02:54:47.769Z,8.10
2017-09-16T02:57:16.632Z,8.87
2017-09-16T02:59:45.500Z,7.20
2017-09-16T03:02:14.356Z,7.63
2017-09-16T03:04:43.232Z,8.07
2017-09-16T03:07:12.093Z,8.27
2017-09-16T03:09:40.970Z,8.83
2017-09-16T03:12:09.832Z,8.07
2017-09-16T03:14:38.704Z,12.70
2017-09-16T03:17:07.556Z,8.93
2017-09-16T03:19:36.428Z,9.80
2017-09-16T03:22:05.289Z,9.60
2017-09-16T03:24:34.180Z,8.27
2017-09-16T03:27:03.041Z,9.77
2017-09-16T03:29:31.896Z,9.03
2017-09-16T03:32:00.770Z,8.63
2017-09-16T03:34:29.633Z,8.73
2017-09-16T03:36:58.507Z,9.03
2017-09-16T03:39:27.372Z,8.73
2017-09-16T03:41:56.252Z,9.70
2017-09-16T03:44:25.130Z,9.47
2017-09-16T03:46:54.001Z,7.90
2017-09-16T03:49:22.852Z,9.30
2017-09-16T03:51:51.722Z,9.73
2017-09-16T03:54:20.589Z,9.90
2017-09-16T03:56:49.481Z,10.10
2017-09-16T03:59:18.369Z,9.33
2017-09-16T04:01:52.939Z,11.57
2017-09-16T04:04:21.800Z,7.83
2017-09-16T04:06:50.670Z,9.70
2017-09-16T04:09:19.529Z,10.67
2017-09-16T04:11:48.404Z,9.07
2017-09-16T04:14:17.285Z,10.40
2017-09-16T04:16:46.161Z,9.80
2017-09-16T04:19:15.024Z,10.20
2017-09-16T04:21:43.909Z,10.73
2017-09-16T04:24:12.777Z,11.43
2017-09-16T04:26:41.649Z,10.87
2017-09-16T04:29:10.509Z,11.17
2017-09-16T04:31:39.380Z,10.27
2017-09-16T04:34:08.240Z,10.67
2017-09-16T04:36:37.125Z,11.80
2017-09-16T04:39:05.988Z,10.20
2017-09-16T04:41:34.863Z,11.83
2017-09-16T04:44:03.717Z,10.47
2017-09-16T04:46:32.603Z,10.10
2017-09-16T04:49:01.481Z,11.00
2017-09-16T04:51:30.358Z,12.97
2017-09-16T04:53:59.229Z,12.37
2017-09-16T04:56:28.108Z,10.77
2017-09-16T04:58:56.971Z,11.07
2017-09-16T05:01:25.857Z,10.00
2017-09-16T05:03:54.725Z,11.20
2017-09-16T05:06:23.610Z,11.17
2017-09-16T05:08:52.468Z,9.70
2017-09-16T05:11:21.353Z,11.50
2017-09-16T05:13:50.213Z,10.07
2017-09-16T05:16:19.091Z,11.37
2017-09-16T05:18:47.943Z,11.00
2017-09-16T05:21:16.820Z,12.27
2017-09-16T05:23:45.685Z,9.53
2017-09-16T05:26:14.559Z,10.60
2017-09-16T05:28:43.444Z,10.93
2017-09-16T05:31:12.304Z,11.17
2017-09-16T05:33:41.180Z,10.30
2017-09-16T05:36:10.061Z,9.10
2017-09-16T05:38:38.936Z,10.10
2017-09-16T05:41:07.802Z,10.13
2017-09-16T05:43:36.688Z,10.30
2017-09-16T05:46:05.550Z,10.10
2017-09-16T05:48:34.420Z,9.93
2017-09-16T05:51:03.292Z,10.17
2017-09-16T05:53:32.173Z,9.80
2017-09-16T05:56:01.027Z,10.07
2017-09-16T05:58:29.932Z,10.63
2017-09-16T06:00:58.787Z,9.17
2017-09-16T06:03:27.640Z,8.43
2017-09-16T06:05:56.512Z,10.97
2017-09-16T06:08:25.377Z,10.00
2017-09-16T06:10:54.248Z,8.63
2017-09-16T06:13:23.113Z,9.70
2017-09-16T06:15:51.984Z,9.10
2017-09-16T06:18:20.840Z,9.57
2017-09-16T06:20:49.712Z,8.67
2017-09-16T06:23:18.573Z,9.10
2017-09-16T06:25:47.454Z,9.67
2017-09-16T06:28:16.304Z,9.20
2017-09-16T06:30:45.184Z,8.93
2017-09-16T06:33:14.048Z,7.93
2017-09-16T06:35:42.928Z,8.20
2017-09-16T06:38:11.779Z,7.97
2017-09-16T06:40:40.652Z,7.20
2017-09-16T06:43:09.515Z,7.87
2017-09-16T06:45:38.412Z,7.80
2017-09-16T06:48:07.312Z,7.23
2017-09-16T06:50:36.221Z,8.10
2017-09-16T06:53:05.082Z,6.23
2017-09-16T06:55:33.951Z,7.13
2017-09-16T06:58:02.852Z,8.03
2017-09-16T07:00:31.714Z,6.20
2017-09-16T07:03:00.568Z,6.00
2017-09-16T07:05:29.436Z,6.27
2017-09-16T07:07:58.297Z,4.87
2017-09-16T07:13:02.499Z,4.63
2017-09-16T07:15:31.375Z,4.80
2017-09-16T07:18:00.232Z,5.93
2017-09-16T07:20:29.122Z,5.40
2017-09-16T07:22:57.981Z,5.30
2017-09-16T07:25:26.840Z,5.37
2017-09-16T07:27:55.722Z,4.60
2017-09-16T07:30:24.585Z,5.60
2017-09-16T07:32:53.452Z,5.27
2017-09-16T07:35:22.312Z,5.30
2017-09-16T07:37:51.194Z,5.70
2017-09-16T07:40:20.062Z,5.57
2017-09-16T07:42:48.936Z,5.03
2017-09-16T07:45:17.796Z,4.82
2017-09-16T07:47:46.672Z,5.78
2017-09-16T07:50:15.522Z,8.18
2017-09-16T07:52:44.399Z,4.65
2017-09-16T07:55:13.260Z,5.65
2017-09-16T07:57:42.209Z,6.22
2017-09-16T08:00:11.069Z,4.50
2017-09-16T08:02:39.946Z,4.53
2017-09-16T08:05:08.803Z,4.35
2017-09-16T08:07:37.677Z,4.62
2017-09-16T08:10:06.537Z,4.95
2017-09-16T08:12:35.412Z,5.20
2017-09-16T08:15:04.276Z,4.60
2017-09-16T08:17:33.136Z,5.15
2017-09-16T08:20:02.122Z,5.93
2017-09-16T08:22:30.982Z,4.93
2017-09-16T08:24:59.859Z,5.87
2017-09-16T08:27:28.716Z,9.77
2017-09-16T08:29:57.592Z,4.40
2017-09-16T08:32:26.455Z,5.20
2017-09-16T08:34:55.331Z,4.87
2017-09-16T08:37:24.187Z,3.97
2017-09-16T08:39:53.056Z,6.10
2017-09-16T08:42:21.912Z,4.90
2017-09-16T08:44:50.794Z,5.25
2017-09-16T08:47:19.660Z,4.20
2017-09-16T08:49:48.536Z,4.20
2017-09-16T08:52:17.397Z,4.53
2017-09-16T08:54:46.292Z,5.72
2017-09-16T08:57:15.148Z,4.53
2017-09-16T08:59:44.021Z,3.97
2017-09-16T09:02:12.893Z,3.70
2017-09-16T09:04:41.764Z,4.32
2017-09-16T09:07:10.621Z,5.03
2017-09-16T09:09:39.496Z,5.00
2017-09-16T09:12:08.356Z,4.80
2017-09-16T09:14:37.232Z,4.43
2017-09-16T09:17:06.084Z,4.03
2017-09-16T09:19:34.962Z,3.85
2017-09-16T09:22:03.824Z,4.82
2017-09-16T09:24:32.697Z,3.92
2017-09-16T09:27:01.568Z,3.00
2017-09-16T09:29:30.453Z,3.33
2017-09-16T09:31:59.313Z,3.40
2017-09-16T09:34:28.169Z,4.00
2017-09-16T09:36:57.040Z,3.50
2017-09-16T09:39:25.892Z,3.60
2017-09-16T09:41:54.772Z,3.45
2017-09-16T09:44:23.638Z,4.30
2017-09-16T09:46:52.517Z,4.00
2017-09-16T09:49:21.392Z,3.85
2017-09-16T09:51:50.277Z,3.62
2017-09-16T09:54:19.132Z,3.62
2017-09-16T09:56:48.007Z,3.10
2017-09-16T09:59:16.877Z,3.28
2017-09-16T10:01:45.748Z,3.55
2017-09-16T10:04:14.604Z,2.90
2017-09-16T10:06:43.476Z,3.50
2017-09-16T10:09:12.336Z,3.20
2017-09-16T10:11:41.217Z,2.67
2017-09-16T10:14:10.092Z,2.75
2017-09-16T10:16:38.969Z,2.40
2017-09-16T10:19:07.820Z,2.12
2017-09-16T10:21:36.696Z,1.90
2017-09-16T10:24:05.552Z,1.70
2017-09-16T10:26:34.426Z,2.00
2017-09-16T10:29:03.285Z,2.10
2017-09-16T10:31:32.185Z,2.50
2017-09-16T10:34:01.052Z,3.85
2017-09-16T10:36:29.933Z,1.60
2017-09-16T10:38:58.805Z,1.90
2017-09-16T10:41:27.665Z,2.20
2017-09-16T10:43:56.549Z,2.25
2017-09-16T10:46:25.417Z,2.20
2017-09-16T10:48:54.280Z,1.90
2017-09-16T10:51:23.136Z,2.30
2017-09-16T10:53:52.018Z,2.47
2017-09-16T10:56:20.889Z,3.08
2017-09-16T10:58:49.767Z,4.25
2017-09-16T11:01:18.622Z,2.33
2017-09-16T11:03:47.630Z,1.83
2017-09-16T11:06:16.492Z,1.87
2017-09-16T11:08:45.369Z,2.28
2017-09-16T11:11:14.227Z,3.25
2017-09-16T11:13:43.116Z,2.47
2017-09-16T11:16:11.975Z,2.73
2017-09-16T11:18:40.833Z,2.90
2017-09-16T11:21:09.723Z,2.43
2017-09-16T11:23:38.577Z,2.20
2017-09-16T11:26:07.452Z,1.80
2017-09-16T11:28:36.308Z,3.13
2017-09-16T11:31:05.177Z,2.10
2017-09-16T11:33:34.035Z,4.03
2017-09-16T11:36:02.913Z,2.30
2017-09-16T11:38:31.768Z,2.30
2017-09-16T11:41:00.646Z,2.40
2017-09-16T11:43:29.505Z,2.77
2017-09-16T11:45:58.381Z,3.77
2017-09-16T11:48:27.236Z,3.73
2017-09-16T11:50:56.127Z,2.00
2017-09-16T11:53:24.984Z,3.97
2017-09-16T11:55:53.861Z,2.40
2017-09-16T11:58:22.720Z,2.85
2017-09-16T12:00:51.593Z,1.80
2017-09-16T12:03:20.460Z,1.57
2017-09-16T12:05:49.341Z,2.50
2017-09-16T12:08:18.205Z,1.98
2017-09-16T12:10:47.082Z,2.28
2017-09-16T12:13:15.944Z,4.50
2017-09-16T12:15:44.843Z,1.70
2017-09-16T12:18:13.704Z,2.20
2017-09-16T12:20:42.569Z,2.00
2017-09-16T12:23:11.442Z,1.90
2017-09-16T12:25:40.303Z,1.70
2017-09-16T12:28:09.178Z,3.07
2017-09-16T12:30:38.037Z,2.27
2017-09-16T12:33:06.926Z,1.57
2017-09-16T12:35:35.785Z,2.22
2017-09-16T12:38:04.661Z,1.73
2017-09-16T12:40:33.530Z,1.70
2017-09-16T12:43:02.430Z,1.83
2017-09-16T12:45:31.290Z,1.67
2017-09-16T12:48:00.164Z,2.22
2017-09-16T12:50:29.016Z,2.20
2017-09-16T12:52:57.896Z,2.50
2017-09-16T12:55:26.752Z,1.80
2017-09-16T12:57:55.627Z,2.90
2017-09-16T13:00:24.555Z,2.03
2017-09-16T13:02:53.445Z,3.30
2017-09-16T13:05:22.305Z,2.30
2017-09-16T13:07:51.202Z,2.33
2017-09-16T13:10:20.061Z,2.17
2017-09-16T13:12:48.941Z,4.87
2017-09-16T13:15:17.803Z,1.70
2017-09-16T13:17:46.686Z,2.40
2017-09-16T13:20:15.541Z,2.10
2017-09-16T13:22:44.429Z,2.43
2017-09-16T13:25:13.296Z,2.20
2017-09-16T13:27:42.192Z,2.93
2017-09-16T13:30:11.058Z,4.20
2017-09-16T13:32:39.917Z,2.30
2017-09-16T13:35:08.804Z,2.70
2017-09-16T13:37:37.659Z,2.90
2017-09-16T13:40:06.543Z,1.87
2017-09-16T13:42:35.415Z,1.83
2017-09-16T13:45:04.300Z,1.80
2017-09-16T13:47:33.159Z,4.30
2017-09-16T13:50:02.093Z,3.03
2017-09-16T13:52:30.951Z,3.27
2017-09-16T13:54:59.860Z,2.63
2017-09-16T13:57:28.720Z,4.57
2017-09-16T13:59:57.598Z,1.97
2017-09-16T14:02:26.461Z,2.03
2017-09-16T14:04:55.332Z,2.60
2017-09-16T14:07:24.257Z,2.47
2017-09-16T14:09:53.128Z,1.97
2017-09-16T14:12:21.982Z,2.17
2017-09-16T14:14:50.852Z,3.00
2017-09-16T14:17:19.716Z,2.93
2017-09-16T14:19:48.602Z,2.00
2017-09-16T14:22:17.469Z,2.83
2017-09-16T14:24:46.350Z,2.83
2017-09-16T14:27:15.211Z,2.60
2017-09-16T14:29:44.096Z,3.40
2017-09-16T14:32:12.961Z,2.10
2017-09-16T14:34:41.840Z,3.20
2017-09-16T14:37:10.703Z,2.40
2017-09-16T14:39:39.578Z,8.70
2017-09-16T14:42:08.432Z,3.00
2017-09-16T14:44:37.317Z,2.80
2017-09-16T14:47:06.168Z,2.03
2017-09-16T14:49:35.070Z,1.93
2017-09-16T14:52:03.936Z,3.93
2017-09-16T14:54:32.788Z,3.67
2017-09-16T14:57:01.669Z,2.40
2017-09-16T14:59:30.541Z,2.47
2017-09-16T15:01:59.424Z,2.03
2017-09-16T15:04:28.308Z,1.93
2017-09-16T15:06:57.190Z,4.37
2017-09-16T15:09:26.048Z,2.20
2017-09-16T15:11:54.923Z,2.10
2017-09-16T15:14:23.792Z,2.23
2017-09-16T15:16:52.685Z,3.50
2017-09-16T15:19:21.544Z,2.93
2017-09-16T15:21:50.425Z,2.10
2017-09-16T15:24:19.280Z,2.50
2017-09-16T15:26:48.160Z,4.37
2017-09-16T15:29:17.026Z,2.20
2017-09-16T15:31:45.909Z,3.03
2017-09-16T15:34:14.792Z,1.80
2017-09-16T15:36:43.668Z,3.90
2017-09-16T15:39:12.529Z,2.80
2017-09-16T15:41:41.404Z,5.30
2017-09-16T15:44:10.260Z,3.40
2017-09-16T15:46:39.157Z,3.03
2017-09-16T15:49:08.012Z,3.40
2017-09-16T15:51:36.881Z,5.23
2017-09-16T15:54:05.753Z,5.93
2017-09-16T15:56:34.616Z,3.57
2017-09-16T15:59:03.497Z,2.97
2017-09-16T16:01:32.359Z,1.80
2017-09-16T16:04:01.241Z,2.60
2017-09-16T16:06:30.104Z,2.90
2017-09-16T16:08:58.981Z,2.70
2017-09-16T16:11:27.841Z,4.17
2017-09-16T16:13:56.715Z,2.10
2017-09-16T16:16:25.585Z,3.40
2017-09-16T16:18:54.467Z,1.97
2017-09-16T16:21:23.320Z,2.07
2017-09-16T16:23:52.201Z,2.07
2017-09-16T16:26:21.059Z,2.83
2017-09-16T16:28:49.937Z,2.20
2017-09-16T16:31:18.802Z,3.90
2017-09-16T16:33:47.684Z,3.50
2017-09-16T16:36:16.540Z,3.70
2017-09-16T16:38:45.408Z,3.10
2017-09-16T16:41:14.265Z,3.10
2017-09-16T16:43:43.137Z,3.80
2017-09-16T16:46:11.994Z,3.17
2017-09-16T16:48:40.880Z,3.40
2017-09-16T16:51:09.740Z,3.40
2017-09-16T16:53:38.633Z,4.27
2017-09-16T16:56:07.510Z,5.13
2017-09-16T16:58:36.364Z,3.90
2017-09-16T17:01:05.269Z,3.37
2017-09-16T17:03:34.137Z,4.23
2017-09-16T17:06:03.023Z,3.97
2017-09-16T17:08:31.880Z,5.67
2017-09-16T17:11:00.753Z,4.53
2017-09-16T17:13:29.611Z,5.63
2017-09-16T17:15:58.491Z,3.30
2017-09-16T17:18:27.349Z,4.43
2017-09-16T17:20:56.233Z,3.60
2017-09-16T17:23:25.102Z,4.07
2017-09-16T17:25:53.978Z,4.90
2017-09-16T17:28:22.850Z,3.87
2017-09-16T17:30:51.738Z,6.07
2017-09-16T17:33:20.592Z,4.60
2017-09-16T17:35:49.476Z,5.40
2017-09-16T17:38:18.339Z,11.33
2017-09-16T17:40:47.212Z,21.73
2017-09-16T17:43:16.076Z,19.57
2017-09-16T17:45:44.956Z,9.80
2017-09-16T17:48:13.822Z,7.30
2017-09-16T17:50:42.701Z,4.77
2017-09-16T17:53:11.560Z,5.27
2017-09-16T17:55:40.437Z,5.33
2017-09-16T17:58:09.293Z,4.63
2017-09-16T18:00:38.184Z,4.70
2017-09-16T18:03:07.052Z,4.23
2017-09-16T18:05:35.933Z,4.93
2017-09-16T18:08:04.788Z,6.23
2017-09-16T18:10:33.644Z,5.80
2017-09-16T18:13:02.517Z,8.70
2017-09-16T18:15:31.389Z,5.97
2017-09-16T18:18:00.260Z,7.67
2017-09-16T18:20:29.121Z,7.37
2017-09-16T18:22:57.999Z,6.50
2017-09-16T18:25:26.887Z,5.40
2017-09-16T18:27:55.747Z,5.70
2017-09-16T18:30:24.605Z,5.57
2017-09-16T18:32:53.480Z,5.20
2017-09-16T18:35:22.336Z,6.90
2017-09-16T18:37:52.032Z,8.30
2017-09-16T18:40:20.898Z,6.63
2017-09-16T18:42:49.784Z,6.20
2017-09-16T18:45:18.645Z,6.07
2017-09-16T18:47:47.538Z,6.20
2017-09-16T18:50:16.412Z,6.80
2017-09-16T18:52:45.294Z,5.87
2017-09-16T18:55:14.155Z,7.00
2017-09-16T18:57:43.029Z,7.47
2017-09-16T19:00:11.889Z,7.23
2017-09-16T19:02:40.764Z,6.30
2017-09-16T19:05:09.629Z,6.90
2017-09-16T19:07:38.513Z,6.87
2017-09-16T19:10:07.368Z,7.93
2017-09-16T19:12:36.244Z,6.90
2017-09-16T19:15:05.825Z,7.63
2017-09-16T19:17:34.724Z,7.33
2017-09-16T19:20:03.597Z,6.70
2017-09-16T19:22:32.456Z,6.77
2017-09-16T19:25:01.331Z,5.67
2017-09-16T19:27:30.188Z,7.93
2017-09-16T19:29:59.064Z,9.87
2017-09-16T19:32:27.919Z,7.07
2017-09-16T19:34:56.789Z,7.13
2017-09-16T19:37:25.649Z,7.77
2017-09-16T19:39:54.518Z,6.97
2017-09-16T19:42:23.371Z,7.67
2017-09-16T19:44:52.243Z,6.07
2017-09-16T19:47:21.105Z,6.23
2017-09-16T19:49:50.009Z,6.27
2017-09-16T19:52:18.866Z,5.43
2017-09-16T19:54:47.741Z,6.33
2017-09-16T19:57:16.603Z,5.70
2017-09-16T19:59:45.479Z,6.70
2017-09-16T20:02:14.357Z,7.50
2017-09-16T20:04:43.234Z,6.80
2017-09-16T20:07:12.093Z,7.60
2017-09-16T20:09:40.967Z,10.67
2017-09-16T20:12:09.828Z,8.73
2017-09-16T20:14:38.705Z,7.07
2017-09-16T20:17:07.562Z,7.17
2017-09-16T20:19:36.445Z,7.00
2017-09-16T20:22:05.303Z,8.10
2017-09-16T20:24:34.172Z,9.93
2017-09-16T20:27:03.044Z,7.80
2017-09-16T20:29:31.912Z,7.33
2017-09-16T20:32:00.788Z,7.30
2017-09-16T20:34:29.650Z,8.23
2017-09-16T20:36:58.534Z,7.70
2017-09-16T20:39:27.392Z,11.13
2017-09-16T20:41:56.268Z,9.70
2017-09-16T20:44:25.138Z,8.70
2017-09-16T20:46:54.036Z,9.40
2017-09-16T20:49:22.913Z,9.20
2017-09-16T20:51:51.788Z,9.27
2017-09-16T20:54:20.653Z,8.27
2017-09-16T20:56:49.534Z,8.40
2017-09-16T20:59:18.401Z,7.50
2017-09-16T21:01:47.272Z,9.77
2017-09-16T21:04:16.128Z,8.43
2017-09-16T21:06:45.004Z,10.67
2017-09-16T21:09:13.869Z,9.37
2017-09-16T21:11:42.742Z,8.87
2017-09-16T21:14:11.592Z,9.67
2017-09-16T21:16:40.467Z,8.57
2017-09-16T21:19:09.324Z,7.90
2017-09-16T21:21:38.220Z,8.03
2017-09-16T21:24:07.085Z,9.37
2017-09-16T21:26:35.948Z,8.87
2017-09-16T21:29:04.816Z,8.20
2017-09-16T21:31:33.673Z,8.63
2017-09-16T21:34:02.548Z,10.20
2017-09-16T21:36:31.404Z,9.27
2017-09-16T21:39:00.280Z,10.73
2017-09-16T21:41:29.137Z,9.83
2017-09-16T21:43:58.018Z,10.53
2017-09-16T21:46:26.882Z,9.77
2017-09-16T21:48:55.759Z,10.77
2017-09-16T21:51:24.615Z,12.20
2017-09-16T21:53:53.496Z,13.80
2017-09-16T21:56:22.356Z,17.17
2017-09-16T21:58:51.231Z,11.50
2017-09-16T22:01:20.097Z,15.57
2017-09-16T22:03:48.976Z,13.90
2017-09-16T22:06:17.845Z,12.40
2017-09-16T22:08:46.728Z,12.97
2017-09-16T22:11:15.593Z,12.87
2017-09-16T22:13:44.473Z,11.10
2017-09-16T22:16:13.336Z,11.87
2017-09-16T22:18:42.235Z,13.67
2017-09-16T22:21:11.100Z,11.80
2017-09-16T22:23:39.964Z,13.40
2017-09-16T22:26:08.837Z,10.50
2017-09-16T22:28:37.700Z,10.43
2017-09-16T22:31:06.580Z,12.70
2017-09-16T22:33:35.441Z,11.17
2017-09-16T22:36:04.581Z,11.53
2017-09-16T22:38:33.441Z,15.77
2017-09-16T22:41:02.341Z,15.30
2017-09-16T22:43:31.204Z,14.67
2017-09-16T22:46:00.089Z,12.70
2017-09-16T22:48:28.956Z,10.53
2017-09-16T22:50:57.836Z,11.10
2017-09-16T22:53:26.701Z,13.77
2017-09-16T22:55:55.584Z,11.30
2017-09-16T22:58:24.448Z,11.63
2017-09-16T23:00:53.325Z,10.87
2017-09-16T23:03:22.196Z,11.27
2017-09-16T23:05:51.101Z,12.20
2017-09-16T23:08:19.961Z,10.70
2017-09-16T23:10:48.819Z,11.90
2017-09-16T23:13:17.702Z,12.10
2017-09-16T23:15:46.569Z,11.60
2017-09-16T23:18:15.452Z,12.17
2017-09-16T23:20:44.425Z,12.53
2017-09-16T23:23:13.304Z,12.70
2017-09-16T23:25:42.173Z,13.30
2017-09-16T23:28:11.060Z,15.40
2017-09-16T23:30:39.924Z,12.80
2017-09-16T23:33:08.805Z,11.90
2017-09-16T23:35:37.672Z,13.13
2017-09-16T23:38:06.564Z,12.53
2017-09-16T23:40:35.428Z,14.43
2017-09-16T23:43:04.442Z,11.47
2017-09-16T23:45:33.304Z,13.30
2017-09-16T23:48:02.189Z,12.47
2017-09-16T23:50:31.049Z,13.27
2017-09-16T23:52:59.930Z,14.07
2017-09-16T23:55:28.798Z,13.00
2017-09-16T23:57:57.677Z,12.40
